Orbital elements of BREEZE-M DEB
| Launched | 27 February 2006 |
| Flight ended | – |
| Launch site | Tyuratam Missile and Space Center, Kazakhstan (Also known as Baikonur Cosmodrome) |
| Owner | Commonwealth of Independent States (former USSR) |
| NORAD ID | 32029 |
| Date fetched |
Epoch osculation |
Inc. [°] |
Ecc. | RA asc node [hr] |
Arg Peri. [°] |
Mean anom [°] |
Mean motion [rev/day] |
Abs. mag |
| Date fetched |
Epoch osculation |
Inc. [°] |
Ecc. | RA asc node [hr] |
Arg Peri. [°] |
Mean anom [°] |
Mean motion [rev/day] |
Abs. mag |
| 2026 May 04 17:57 | 2026 Apr 30 03:02:23 | 51.5350 | 0.51139 | 10.7213 | 50.8020 | 344.6091 | 5.26404 | – |
| 2026 May 03 17:57 | 2026 Apr 30 03:02:23 | 51.5350 | 0.51139 | 10.7213 | 50.8020 | 344.6091 | 5.26404 | – |
| 2026 May 02 17:57 | 2026 Apr 30 03:02:23 | 51.5350 | 0.51139 | 10.7213 | 50.8020 | 344.6091 | 5.26404 | – |
| 2026 May 01 17:56 | 2026 Apr 30 03:02:23 | 51.5350 | 0.51139 | 10.7213 | 50.8020 | 344.6091 | 5.26404 | – |
| 2026 Apr 30 17:56 | 2026 Apr 30 03:02:23 | 51.5350 | 0.51139 | 10.7213 | 50.8020 | 344.6091 | 5.26404 | – |
| 2026 Apr 29 17:57 | 2026 Apr 24 10:16:34 | 51.5332 | 0.51128 | 11.0001 | 47.6676 | 344.6091 | 5.26404 | – |
| 2026 Apr 28 17:56 | 2026 Apr 24 10:16:34 | 51.5332 | 0.51128 | 11.0001 | 47.6676 | 344.6091 | 5.26404 | – |
| 2026 Apr 27 17:58 | 2026 Apr 24 10:16:34 | 51.5332 | 0.51128 | 11.0001 | 47.6676 | 344.6091 | 5.26404 | – |
| 2026 Apr 26 17:58 | 2026 Apr 24 10:16:34 | 51.5332 | 0.51128 | 11.0001 | 47.6676 | 344.6091 | 5.26404 | – |
| 2026 Apr 25 17:58 | 2026 Apr 24 10:16:34 | 51.5332 | 0.51128 | 11.0001 | 47.6676 | 344.6091 | 5.26404 | – |
| 2026 Apr 24 17:59 | 2026 Apr 24 10:16:34 | 51.5332 | 0.51128 | 11.0001 | 47.6676 | 344.6091 | 5.26404 | – |
| 2026 Apr 23 17:57 | 2026 Apr 19 07:11:17 | 51.5311 | 0.51117 | 11.2508 | 44.8470 | 344.6091 | 5.26404 | – |
| 2026 Apr 22 17:57 | 2026 Apr 19 07:11:17 | 51.5311 | 0.51117 | 11.2508 | 44.8470 | 344.6091 | 5.26404 | – |
| 2026 Apr 21 17:57 | 2026 Apr 19 07:11:17 | 51.5311 | 0.51117 | 11.2508 | 44.8470 | 344.6091 | 5.26404 | – |
| 2026 Apr 20 17:57 | 2026 Apr 19 07:11:17 | 51.5311 | 0.51117 | 11.2508 | 44.8470 | 344.6091 | 5.26404 | – |
| 2026 Apr 19 17:58 | 2026 Apr 19 07:11:17 | 51.5311 | 0.51117 | 11.2508 | 44.8470 | 344.6091 | 5.26404 | – |
| 2026 Apr 18 17:56 | 2026 Apr 11 12:16:28 | 51.5292 | 0.51102 | 11.6315 | 40.5701 | 344.6091 | 5.26404 | – |
| 2026 Apr 16 17:57 | 2026 Apr 11 12:16:28 | 51.5292 | 0.51102 | 11.6315 | 40.5701 | 344.6091 | 5.26404 | – |
| 2026 Apr 14 17:57 | 2026 Apr 11 12:16:28 | 51.5292 | 0.51102 | 11.6315 | 40.5701 | 344.6091 | 5.26404 | – |
| 2026 Apr 13 17:57 | 2026 Apr 11 12:16:28 | 51.5292 | 0.51102 | 11.6315 | 40.5701 | 344.6091 | 5.26404 | – |
| 2026 Apr 12 17:57 | 2026 Apr 08 11:19:56 | 51.5289 | 0.51097 | 11.7800 | 38.9048 | 344.6091 | 5.26404 | – |
| 2026 Apr 11 17:57 | 2026 Apr 08 11:19:56 | 51.5289 | 0.51097 | 11.7800 | 38.9048 | 344.6091 | 5.26404 | – |
| 2026 Apr 10 17:58 | 2026 Apr 08 11:19:56 | 51.5289 | 0.51097 | 11.7800 | 38.9048 | 344.6091 | 5.26404 | – |
| 2026 Apr 09 18:01 | 2026 Apr 08 11:19:56 | 51.5289 | 0.51097 | 11.7800 | 38.9048 | 344.6091 | 5.26404 | – |
| 2026 Apr 08 17:57 | 2026 Apr 08 11:19:56 | 51.5289 | 0.51097 | 11.7800 | 38.9048 | 344.6091 | 5.26404 | – |
| 2026 Apr 07 17:57 | 2026 Apr 01 10:39:06 | 51.5273 | 0.51087 | 12.1233 | 35.0493 | 344.6091 | 5.26404 | – |